Time;durP1;ratioP1;P1;durP2;ratioP2;P2;SDS_P1;SDS_P2;PMS_P1;PMS_P2;Temp;Humidity;BMP_temperature;BMP_pressure;BME280_temperature;BME280_humidity;BME280_pressure;Samples;Min_cycle;Max_cycle;Signal;HPM_P1;HPM_P2
2023/09/10 00:00:14;;;;;;;3.25;1.90;;;;;;;15.91;100.00;98048.63;1225803;75;2919995;-71
2023/09/10 00:02:46;;;;;;;2.85;2.40;;;;;;;15.76;100.00;98048.16;1225684;75;2919969;-70
2023/09/10 00:05:19;;;;;;;3.65;2.70;;;;;;;15.74;100.00;98051.41;1226313;75;2915311;-71
2023/09/10 00:07:52;;;;;;;2.70;2.45;;;;;;;15.81;100.00;98052.16;1225443;75;2922457;-72
2023/09/10 00:10:24;;;;;;;3.30;2.40;;;;;;;15.65;100.00;98054.38;1225970;75;2920303;-70
2023/09/10 00:12:59;;;;;;;3.40;3.00;;;;;;;15.47;100.00;98047.34;1222135;75;2992424;-74
2023/09/10 00:15:32;;;;;;;3.10;2.80;;;;;;;15.46;100.00;98047.81;1226397;75;2920180;-72
2023/09/10 00:18:05;;;;;;;4.10;2.95;;;;;;;15.52;100.00;98052.09;1225916;75;2920948;-72
2023/09/10 00:20:37;;;;;;;3.50;2.75;;;;;;;15.41;100.00;98054.09;1226263;75;2926641;-71
2023/09/10 00:23:10;;;;;;;2.80;2.40;;;;;;;15.41;100.00;98048.56;1212214;75;3809034;-72
2023/09/10 00:25:42;;;;;;;3.05;2.70;;;;;;;15.44;100.00;98047.56;1211503;75;3998488;-73
2023/09/10 00:28:18;;;;;;;5.45;3.00;;;;;;;15.17;100.00;98054.53;1226315;75;2921869;-71
2023/09/10 00:30:55;;;;;;;3.20;2.90;;;;;;;15.24;100.00;98054.06;1224756;75;2915216;-71
2023/09/10 00:33:28;;;;;;;3.30;2.90;;;;;;;15.39;100.00;98051.81;1226507;75;2914797;-73
2023/09/10 00:36:01;;;;;;;3.55;2.85;;;;;;;15.22;100.00;98056.56;1225986;75;2925174;-69
2023/09/10 00:38:33;;;;;;;2.95;2.60;;;;;;;15.37;100.00;98051.59;1225544;75;2922352;-72
2023/09/10 00:41:07;;;;;;;2.90;2.35;;;;;;;15.31;100.00;98051.56;1222784;75;3037234;-71
2023/09/10 00:43:42;;;;;;;2.30;1.95;;;;;;;15.26;100.00;98057.06;1225368;75;2929028;-73
2023/09/10 00:46:16;;;;;;;2.60;2.10;;;;;;;15.33;100.00;98057.34;1225656;75;2934916;-71
2023/09/10 00:48:48;;;;;;;3.10;2.25;;;;;;;15.19;100.00;98058.31;1223099;75;2975096;-71
2023/09/10 00:51:22;;;;;;;2.55;2.10;;;;;;;15.29;100.00;98054.06;1226173;75;2914805;-70
2023/09/10 00:53:55;;;;;;;2.15;1.95;;;;;;;15.27;100.00;98048.31;1226303;75;2922612;-70
2023/09/10 00:56:28;;;;;;;2.10;1.90;;;;;;;15.26;100.00;98059.81;1225655;75;2918516;-72
2023/09/10 00:59:04;;;;;;;2.75;2.20;;;;;;;15.26;100.00;98057.81;1225405;75;2918839;-71
2023/09/10 01:01:36;;;;;;;2.60;2.30;;;;;;;15.21;100.00;98055.81;1223371;75;2958669;-71
2023/09/10 01:04:09;;;;;;;2.55;2.10;;;;;;;15.16;100.00;98059.31;1225854;75;2912214;-70
2023/09/10 01:06:42;;;;;;;2.90;2.30;;;;;;;14.90;100.00;98057.44;1225511;75;2920534;-69
2023/09/10 01:09:15;;;;;;;3.45;2.55;;;;;;;14.95;100.00;98063.50;1225246;75;2914379;-69
2023/09/10 01:11:59;;;;;;;3.55;2.90;;;;;;;14.98;100.00;98070.75;1225705;75;2914678;-71
2023/09/10 01:14:42;;;;;;;3.15;2.50;;;;;;;15.01;100.00;98067.78;1225556;75;2916005;-72
2023/09/10 01:17:19;;;;;;;2.80;2.50;;;;;;;15.00;100.00;98071.03;1225030;75;3028659;-70
2023/09/10 01:20:27;;;;;;;2.75;2.10;;;;;;;15.01;100.00;98069.75;1224368;75;2916006;-71
2023/09/10 01:23:10;;;;;;;2.55;2.10;;;;;;;15.01;100.00;98067.00;1223663;75;2944523;-72
2023/09/10 01:25:46;;;;;;;2.30;2.10;;;;;;;15.00;100.00;98065.50;1222843;75;2964511;-70
2023/09/10 01:28:18;;;;;;;1.85;1.70;;;;;;;14.94;100.00;98059.97;1224260;75;2913963;-72
2023/09/10 01:30:51;;;;;;;3.30;1.90;;;;;;;14.72;100.00;98052.38;1224455;75;2942320;-70
2023/09/10 01:33:31;;;;;;;3.35;2.75;;;;;;;14.66;100.00;98057.09;1225575;75;2915498;-71
2023/09/10 01:36:11;;;;;;;3.00;2.70;;;;;;;14.71;100.00;98053.59;1225728;75;2917081;-69
2023/09/10 01:38:50;;;;;;;2.60;2.40;;;;;;;14.76;100.00;98052.13;1225167;75;2919718;-73
2023/09/10 01:41:28;;;;;;;2.45;2.25;;;;;;;14.60;100.00;98051.56;1225295;75;2914837;-74
2023/09/10 01:44:02;;;;;;;2.90;2.60;;;;;;;14.55;100.00;98063.31;1225640;75;2916136;-72
2023/09/10 01:46:36;;;;;;;4.30;3.50;;;;;;;14.58;100.00;98058.81;1225955;75;2915140;-74
2023/09/10 01:49:09;;;;;;;3.70;3.05;;;;;;;14.70;100.00;98060.38;1225955;75;2918972;-71
2023/09/10 01:51:43;;;;;;;3.20;2.90;;;;;;;14.62;100.00;98054.59;1225779;75;2914748;-71
2023/09/10 01:54:15;;;;;;;2.90;2.60;;;;;;;14.53;100.00;98059.50;1225193;75;2920193;-72
2023/09/10 01:56:50;;;;;;;3.00;2.70;;;;;;;14.61;100.00;98063.34;1225452;75;2917781;-72
2023/09/10 01:59:23;;;;;;;2.60;2.15;;;;;;;14.63;100.00;98056.09;1225025;75;2919381;-73
2023/09/10 02:01:55;;;;;;;2.35;2.15;;;;;;;14.57;100.00;98060.06;1225653;75;2934953;-72
2023/09/10 02:04:28;;;;;;;3.15;2.45;;;;;;;14.59;100.00;98054.81;1222228;75;3067327;-72
2023/09/10 02:07:01;;;;;;;2.95;2.50;;;;;;;14.53;100.00;98048.47;1225913;75;2919247;-73
2023/09/10 02:09:33;;;;;;;2.85;2.40;;;;;;;14.52;100.00;98046.97;1225756;75;2917181;-73
2023/09/10 02:12:09;;;;;;;4.05;2.40;;;;;;;14.52;100.00;98055.25;1225880;75;2915548;-73
2023/09/10 02:14:42;;;;;;;2.40;2.20;;;;;;;14.56;100.00;98045.53;1225145;75;2918329;-70
2023/09/10 02:17:15;;;;;;;2.55;2.35;;;;;;;14.55;100.00;98055.06;1225674;75;2918583;-70
2023/09/10 02:19:47;;;;;;;2.30;2.00;;;;;;;14.52;100.00;98053.22;1225154;75;2916235;-72
2023/09/10 02:22:20;;;;;;;3.20;2.35;;;;;;;14.46;100.00;98049.72;1225632;75;2914575;-73
2023/09/10 02:24:52;;;;;;;2.65;2.35;;;;;;;14.37;100.00;98050.66;1222078;75;3070980;-72
2023/09/10 02:27:28;;;;;;;3.65;3.20;;;;;;;14.43;100.00;98048.69;1222566;75;2981185;-73
2023/09/10 02:30:00;;;;;;;3.25;2.95;;;;;;;14.43;100.00;98045.16;1226094;75;2916773;-75
2023/09/10 02:32:34;;;;;;;2.65;2.30;;;;;;;14.46;100.00;98044.19;1225389;75;2922530;-73
2023/09/10 02:35:08;;;;;;;3.30;3.00;;;;;;;14.44;100.00;98044.69;1222721;75;3048552;-73
2023/09/10 02:37:41;;;;;;;3.55;2.95;;;;;;;14.39;100.00;98048.16;1221615;75;3009546;-72
2023/09/10 02:40:14;;;;;;;4.20;3.20;;;;;;;14.16;100.00;98052.00;1224965;75;2922545;-71
2023/09/10 02:42:50;;;;;;;3.05;2.70;;;;;;;14.28;100.00;98048.09;1225568;75;2916892;-71
2023/09/10 02:45:22;;;;;;;3.95;2.75;;;;;;;14.27;100.00;98055.59;1226463;75;2911835;-72
2023/09/10 02:47:55;;;;;;;2.55;2.20;;;;;;;14.27;100.00;98057.59;1226237;75;2918582;-70
2023/09/10 02:50:27;;;;;;;2.55;2.35;;;;;;;14.27;100.00;98052.84;1225551;75;2916331;-71
2023/09/10 02:53:00;;;;;;;2.65;2.40;;;;;;;14.21;100.00;98045.78;1225871;75;2918439;-70
2023/09/10 02:55:32;;;;;;;3.30;2.40;;;;;;;14.25;100.00;98051.81;1221461;75;3066756;-71
2023/09/10 02:58:08;;;;;;;3.20;2.75;;;;;;;14.17;100.00;98057.03;1225787;75;2916387;-69
2023/09/10 03:00:40;;;;;;;3.30;3.00;;;;;;;14.02;100.00;98056.41;1224746;75;2919159;-71
2023/09/10 03:03:13;;;;;;;2.95;2.65;;;;;;;14.16;100.00;98061.03;1225608;75;2917960;-72
2023/09/10 03:05:46;;;;;;;2.80;2.45;;;;;;;14.06;100.00;98043.19;1225746;75;2918445;-73
2023/09/10 03:08:18;;;;;;;2.35;2.10;;;;;;;14.14;100.00;98049.00;1224996;75;2913756;-71
2023/09/10 03:10:51;;;;;;;3.40;2.50;;;;;;;14.06;100.00;98041.19;1225587;75;2922217;-70
2023/09/10 03:13:26;;;;;;;2.60;2.40;;;;;;;14.01;100.00;98047.41;1224865;75;2915830;-70
2023/09/10 03:15:59;;;;;;;2.80;2.30;;;;;;;14.05;100.00;98042.44;1222698;75;3095465;-70
2023/09/10 03:18:31;;;;;;;3.35;2.60;;;;;;;13.87;100.00;98047.56;1225388;75;2921050;-70
2023/09/10 03:21:06;;;;;;;3.00;2.70;;;;;;;13.78;100.00;98052.00;1225527;75;2917424;-70
2023/09/10 03:23:38;;;;;;;4.65;4.00;;;;;;;13.53;100.00;98053.50;1223027;75;3078345;-72
2023/09/10 03:26:15;;;;;;;4.95;4.45;;;;;;;13.47;100.00;98047.22;1225895;75;2919654;-71
2023/09/10 03:28:50;;;;;;;4.15;3.75;;;;;;;13.68;100.00;98055.41;1225732;75;2920954;-70
2023/09/10 03:31:23;;;;;;;4.95;4.45;;;;;;;13.70;100.00;98044.66;1225516;75;2923191;-74
2023/09/10 03:33:58;;;;;;;4.30;3.85;;;;;;;13.71;100.00;98049.69;1225092;75;2921695;-70
2023/09/10 03:36:30;;;;;;;4.30;3.90;;;;;;;13.52;100.00;98043.00;1225288;75;2921013;-75
2023/09/10 03:39:03;;;;;;;4.40;4.00;;;;;;;13.64;100.00;98044.63;1225630;75;2926087;-71
2023/09/10 03:41:36;;;;;;;4.25;3.85;;;;;;;13.73;100.00;98044.44;1226055;75;2922441;-71
2023/09/10 03:44:11;;;;;;;4.60;3.45;;;;;;;13.74;100.00;98047.94;1225602;75;2915535;-72
2023/09/10 03:46:44;;;;;;;3.20;2.90;;;;;;;13.83;100.00;98045.03;1225477;75;2919831;-71
2023/09/10 03:49:16;;;;;;;4.55;3.25;;;;;;;13.78;100.00;98045.72;1219529;75;3040950;-71
2023/09/10 03:51:51;;;;;;;3.10;2.80;;;;;;;13.79;100.00;98036.97;1225748;75;2911457;-70
2023/09/10 03:54:23;;;;;;;2.95;2.65;;;;;;;13.80;100.00;98038.47;1225116;75;2917732;-72
2023/09/10 03:56:56;;;;;;;3.00;2.65;;;;;;;13.75;100.00;98039.19;1224504;75;2944498;-71
2023/09/10 03:59:31;;;;;;;2.60;2.40;;;;;;;13.83;100.00;98034.03;1224670;75;2918122;-70
2023/09/10 04:02:04;;;;;;;2.60;2.40;;;;;;;13.71;100.00;98029.66;1225455;75;2922910;-70
2023/09/10 04:04:37;;;;;;;2.90;2.60;;;;;;;13.72;100.00;98029.16;1225287;75;2923167;-72
2023/09/10 04:07:09;;;;;;;3.30;2.80;;;;;;;13.59;100.00;98032.31;1225323;75;2925998;-72
2023/09/10 04:09:42;;;;;;;3.20;2.90;;;;;;;13.57;100.00;98026.56;1226242;75;2916968;-69
2023/09/10 04:12:15;;;;;;;3.20;2.90;;;;;;;13.59;100.00;98031.56;1225589;75;2917931;-69
2023/09/10 04:14:50;;;;;;;3.20;2.90;;;;;;;13.53;100.00;98031.50;1225073;75;2921891;-69
2023/09/10 04:17:22;;;;;;;4.05;3.60;;;;;;;13.41;100.00;98029.91;1223883;75;2920067;-70
2023/09/10 04:19:55;;;;;;;3.10;2.80;;;;;;;13.56;100.00;98038.03;1225209;68;2922577;-70
2023/09/10 04:22:29;;;;;;;2.90;2.60;;;;;;;13.55;100.00;98037.28;1224666;75;2911563;-74
2023/09/10 04:25:01;;;;;;;3.15;2.55;;;;;;;13.37;100.00;98034.84;1226105;75;2927769;-71
2023/09/10 04:27:34;;;;;;;2.80;2.55;;;;;;;13.46;100.00;98040.19;1225215;75;2914976;-70
2023/09/10 04:30:11;;;;;;;2.90;2.40;;;;;;;13.33;100.00;98039.84;1222188;75;3091962;-71
2023/09/10 04:32:43;;;;;;;4.45;2.90;;;;;;;13.26;100.00;98043.72;1225227;75;2917694;-72
2023/09/10 04:35:16;;;;;;;3.70;3.30;;;;;;;13.21;100.00;98044.44;1224872;75;2922862;-73
2023/09/10 04:37:49;;;;;;;3.45;2.90;;;;;;;13.21;100.00;98047.19;1225361;75;2918292;-70
2023/09/10 04:40:21;;;;;;;3.90;3.50;;;;;;;13.15;100.00;98052.59;1225617;75;2915480;-70
2023/09/10 04:42:55;;;;;;;3.75;3.30;;;;;;;13.15;100.00;98051.84;1224763;75;2914115;-72
2023/09/10 04:45:30;;;;;;;3.85;3.45;;;;;;;13.16;100.00;98054.13;1225010;75;2915654;-73
2023/09/10 04:48:04;;;;;;;4.40;4.00;;;;;;;13.06;100.00;98055.53;1225030;75;2924825;-71
2023/09/10 04:50:36;;;;;;;4.90;3.80;;;;;;;13.11;100.00;98056.81;1224572;75;2917513;-74
2023/09/10 04:53:09;;;;;;;3.95;3.55;;;;;;;13.21;100.00;98069.16;1224859;75;2922447;-69
2023/09/10 04:55:42;;;;;;;4.15;3.40;;;;;;;13.31;100.00;98062.31;1225289;75;2919772;-69
2023/09/10 04:58:15;;;;;;;3.60;3.10;;;;;;;13.42;100.00;98065.19;1225097;67;2917406;-70
2023/09/10 05:00:52;;;;;;;2.60;2.40;;;;;;;13.33;100.00;98068.06;1211733;75;4004446;-71
2023/09/10 05:03:25;;;;;;;3.50;3.00;;;;;;;13.47;100.00;98057.44;1224960;75;2917022;-72
2023/09/10 05:06:02;;;;;;;2.95;2.75;;;;;;;13.58;100.00;98074.06;1223925;75;2922835;-70
2023/09/10 05:08:35;;;;;;;2.90;2.60;;;;;;;13.66;100.00;98069.63;1225825;75;2919639;-72
2023/09/10 05:11:08;;;;;;;2.40;2.20;;;;;;;13.74;100.00;98072.72;1220219;75;3045067;-73
2023/09/10 05:13:40;;;;;;;3.00;2.70;;;;;;;13.77;100.00;98074.50;1222244;75;3017454;-72
2023/09/10 05:16:15;;;;;;;3.10;2.40;;;;;;;13.82;100.00;98071.78;1216864;75;3110318;-68
2023/09/10 05:18:48;;;;;;;3.85;2.80;;;;;;;13.88;100.00;98073.81;1225072;75;2921077;-71
2023/09/10 05:21:21;;;;;;;2.85;2.55;;;;;;;13.95;100.00;98081.63;1225083;75;2923120;-71
2023/09/10 05:23:53;;;;;;;2.80;2.50;;;;;;;14.00;100.00;98087.19;1220534;75;3032769;-72
2023/09/10 05:26:26;;;;;;;3.60;2.25;;;;;;;14.01;100.00;98087.94;1224963;75;3000360;-70
2023/09/10 05:28:58;;;;;;;3.15;2.85;;;;;;;14.07;100.00;98088.75;1223180;75;2994422;-74
2023/09/10 05:31:34;;;;;;;3.55;3.10;;;;;;;14.19;100.00;98090.34;1223760;75;2933771;-71
2023/09/10 05:34:08;;;;;;;5.05;4.40;;;;;;;14.16;100.00;98090.56;1224887;75;2924435;-71
2023/09/10 05:36:41;;;;;;;4.35;3.75;;;;;;;14.27;100.00;98101.66;1226118;75;2921445;-72
2023/09/10 05:39:13;;;;;;;8.30;6.80;;;;;;;14.17;100.00;98101.09;1224586;75;2933505;-71
2023/09/10 05:41:46;;;;;;;14.70;12.30;;;;;;;14.41;100.00;98109.03;1224788;75;2928678;-71
2023/09/10 05:44:19;;;;;;;13.20;11.40;;;;;;;14.45;100.00;98104.03;1224991;75;2924794;-71
2023/09/10 05:46:54;;;;;;;10.30;9.10;;;;;;;14.42;100.00;98102.25;1225247;75;2917601;-72
2023/09/10 05:49:27;;;;;;;8.75;7.05;;;;;;;14.61;100.00;98097.16;1224817;75;2951213;-70
2023/09/10 05:51:59;;;;;;;6.65;5.60;;;;;;;14.73;100.00;98106.22;1220665;75;2966605;-70
2023/09/10 05:54:32;;;;;;;6.80;6.10;;;;;;;14.84;100.00;98103.53;1224012;75;2928322;-72
2023/09/10 05:57:05;;;;;;;6.40;5.80;;;;;;;14.95;100.00;98096.56;1225653;75;2920450;-70
2023/09/10 05:59:37;;;;;;;5.95;4.95;;;;;;;15.02;100.00;98101.63;1225148;75;2920336;-70
2023/09/10 06:02:13;;;;;;;6.15;5.35;;;;;;;15.07;100.00;98103.63;1225338;75;2915764;-72
2023/09/10 06:04:45;;;;;;;5.70;5.10;;;;;;;15.23;100.00;98094.69;1225169;75;2923995;-71
2023/09/10 06:07:18;;;;;;;5.15;4.50;;;;;;;15.36;100.00;98094.19;1224624;75;2916982;-72
2023/09/10 06:09:50;;;;;;;3.65;3.35;;;;;;;15.41;100.00;98103.75;1226114;75;2921042;-73
2023/09/10 06:12:23;;;;;;;3.70;3.40;;;;;;;15.61;100.00;98091.75;1225315;75;2920332;-72
2023/09/10 06:14:56;;;;;;;3.10;2.80;;;;;;;15.69;100.00;98092.78;1223123;75;2925277;-70
2023/09/10 06:17:31;;;;;;;3.30;2.95;;;;;;;15.80;100.00;98097.56;1225190;75;2921135;-70
2023/09/10 06:20:06;;;;;;;3.20;2.60;;;;;;;15.98;100.00;98097.84;1224375;75;2928061;-72
2023/09/10 06:22:38;;;;;;;2.90;2.50;;;;;;;16.11;100.00;98091.81;1225858;75;2918752;-70
2023/09/10 06:25:12;;;;;;;2.45;2.25;;;;;;;16.26;100.00;98091.56;1221318;75;3017600;-71
2023/09/10 06:27:45;;;;;;;5.20;4.70;;;;;;;16.17;100.00;98089.81;1222243;75;2998210;-70
2023/09/10 06:30:17;;;;;;;5.05;4.55;;;;;;;16.73;100.00;98090.97;1225079;75;2918566;-70
2023/09/10 06:32:53;;;;;;;6.50;5.80;;;;;;;16.81;100.00;98097.50;1224472;75;2917216;-72
2023/09/10 06:35:26;;;;;;;7.60;6.80;;;;;;;16.81;100.00;98100.25;1225006;75;2915003;-72
2023/09/10 06:37:59;;;;;;;6.85;6.15;;;;;;;17.33;100.00;98088.47;1224491;75;2918188;-70
2023/09/10 06:40:31;;;;;;;6.20;5.60;;;;;;;17.78;100.00;98093.00;1224915;75;2925888;-69
2023/09/10 06:43:05;;;;;;;8.40;7.45;;;;;;;17.66;100.00;98095.84;1225464;75;2920569;-70
2023/09/10 06:45:38;;;;;;;8.55;7.70;;;;;;;17.97;100.00;98096.66;1224803;75;2916065;-72
2023/09/10 06:48:13;;;;;;;13.50;12.10;;;;;;;18.45;100.00;98091.72;1224042;75;2918761;-71
2023/09/10 06:50:47;;;;;;;10.55;9.45;;;;;;;18.88;100.00;98093.78;1225390;75;2919342;-72
2023/09/10 06:53:19;;;;;;;9.90;8.90;;;;;;;18.92;100.00;98100.56;1224909;75;2923430;-72
2023/09/10 06:55:52;;;;;;;7.80;6.90;;;;;;;19.41;100.00;98093.38;1223851;75;2925047;-71
2023/09/10 06:58:25;;;;;;;7.35;6.30;;;;;;;19.26;100.00;98091.81;1224771;75;2924323;-71
2023/09/10 07:00:57;;;;;;;8.40;6.65;;;;;;;19.27;100.00;98101.66;1224586;75;2914977;-73
2023/09/10 07:03:34;;;;;;;7.75;6.95;;;;;;;19.19;100.00;98095.19;1224738;75;2923679;-74
2023/09/10 07:06:08;;;;;;;9.95;7.65;;;;;;;18.98;100.00;98099.72;1192894;75;5549333;-70
2023/09/10 07:08:41;;;;;;;9.85;7.75;;;;;;;18.88;100.00;98091.78;1224304;75;2928592;-73
2023/09/10 07:11:13;;;;;;;7.15;6.45;;;;;;;19.44;100.00;98092.34;1223201;75;2924178;-69
2023/09/10 07:13:46;;;;;;;8.85;7.95;;;;;;;18.99;100.00;98101.25;1224853;75;2920694;-69
2023/09/10 07:16:18;;;;;;;9.50;8.00;;;;;;;19.23;100.00;98101.19;1225077;75;2917414;-70
2023/09/10 07:18:54;;;;;;;7.85;7.05;;;;;;;19.68;100.00;98102.66;1225442;75;2918166;-73
2023/09/10 07:21:26;;;;;;;8.30;7.05;;;;;;;19.50;100.00;98098.56;1225358;75;2917140;-70
2023/09/10 07:23:59;;;;;;;8.05;6.85;;;;;;;19.87;100.00;98103.38;1224539;75;2916624;-71
2023/09/10 07:26:31;;;;;;;7.55;6.70;;;;;;;20.11;100.00;98096.94;1224165;75;2922780;-70
2023/09/10 07:29:04;;;;;;;7.45;6.70;;;;;;;20.25;100.00;98100.47;1224823;75;2920147;-71
2023/09/10 07:31:37;;;;;;;7.15;6.40;;;;;;;20.10;100.00;98091.88;1223404;75;2963295;-71
2023/09/10 07:34:12;;;;;;;9.20;6.40;;;;;;;20.42;99.64;98097.41;1225164;75;2917959;-71
2023/09/10 07:36:46;;;;;;;8.00;7.20;;;;;;;20.57;97.09;98091.38;1224995;75;2918342;-70
2023/09/10 07:39:22;;;;;;;47.05;35.50;;;;;;;20.95;94.07;98091.13;1224670;75;2924578;-72
2023/09/10 07:41:54;;;;;;;26.40;21.80;;;;;;;21.06;93.63;98096.47;1224521;75;2923060;-74
2023/09/10 07:44:27;;;;;;;18.20;14.15;;;;;;;21.25;94.99;98094.31;1221754;75;2924961;-73
2023/09/10 07:46:59;;;;;;;52.40;42.45;;;;;;;21.18;93.94;98092.19;1223211;75;2923777;-72
2023/09/10 07:49:35;;;;;;;67.85;49.45;;;;;;;20.49;97.98;98093.25;1224675;75;2924216;-72
2023/09/10 07:52:08;;;;;;;72.95;57.65;;;;;;;21.24;95.69;98094.88;1223923;75;2918531;-74
2023/09/10 07:54:42;;;;;;;108.80;80.60;;;;;;;21.53;91.26;98093.00;1224880;75;2925044;-71
2023/09/10 07:57:16;;;;;;;99.30;63.85;;;;;;;21.56;90.54;98091.91;1224148;75;2923934;-70
2023/09/10 07:59:49;;;;;;;48.35;35.90;;;;;;;21.86;88.65;98085.13;1224623;75;2930010;-73
2023/09/10 08:02:26;;;;;;;32.10;28.70;;;;;;;22.05;87.13;98079.34;1225278;75;2918077;-71
2023/09/10 08:05:02;;;;;;;24.60;22.10;;;;;;;21.91;87.70;98084.25;1222795;75;3014110;-72
2023/09/10 08:07:34;;;;;;;15.25;11.90;;;;;;;21.72;85.63;98083.69;1225328;75;2920332;-72
2023/09/10 08:10:08;;;;;;;16.75;12.05;;;;;;;22.21;86.36;98077.50;1223036;75;2921904;-70
2023/09/10 08:12:41;;;;;;;13.70;11.90;;;;;;;21.83;86.89;98075.06;1223246;75;2969720;-76
2023/09/10 08:15:13;;;;;;;10.15;8.75;;;;;;;22.31;85.92;98075.69;1224807;75;2919593;-72
2023/09/10 08:17:46;;;;;;;9.35;7.75;;;;;;;22.44;80.88;98074.84;1224924;75;2918584;-74
2023/09/10 08:20:22;;;;;;;52.10;47.25;;;;;;;22.86;81.10;98075.50;1225057;75;2919694;-75
2023/09/10 08:22:54;;;;;;;30.45;27.60;;;;;;;22.55;81.15;98074.56;1224019;75;2942234;-72
2023/09/10 08:25:27;;;;;;;16.75;15.25;;;;;;;23.15;81.21;98086.63;1223879;75;2916607;-74
2023/09/10 08:27:59;;;;;;;11.45;10.25;;;;;;;23.16;83.47;98077.72;1225511;75;2924517;-72
2023/09/10 08:30:33;;;;;;;9.50;8.60;;;;;;;23.68;79.22;98079.72;1225010;75;2916783;-73
2023/09/10 08:33:09;;;;;;;12.60;11.40;;;;;;;23.60;79.50;98085.31;1224269;75;2929461;-72
2023/09/10 08:35:52;;;;;;;7.75;6.95;;;;;;;23.68;74.39;98079.72;1224350;75;2922844;-74
2023/09/10 08:38:26;;;;;;;10.90;9.00;;;;;;;23.39;75.61;98077.03;1225117;75;2922142;-71
2023/09/10 08:41:17;;;;;;;7.80;6.95;;;;;;;23.58;75.40;98077.47;1225826;75;2916392;-75
2023/09/10 08:43:57;;;;;;;7.35;5.80;;;;;;;24.58;73.72;98069.19;1224881;75;2925224;-75
2023/09/10 08:46:32;;;;;;;14.45;12.35;;;;;;;25.04;70.77;98082.31;1225317;75;2920281;-74
2023/09/10 08:49:05;;;;;;;311.10;281.55;;;;;;;25.00;70.77;98071.47;1224942;75;2923510;-75
2023/09/10 08:51:41;;;;;;;198.05;177.45;;;;;;;24.70;70.36;98077.91;1220948;75;3053083;-77
2023/09/10 08:54:17;;;;;;;37.35;33.45;;;;;;;24.60;70.69;98069.34;1225320;75;2918304;-77
2023/09/10 08:56:50;;;;;;;37.20;33.40;;;;;;;25.24;68.04;98066.56;1225902;75;2926540;-77
2023/09/10 08:59:23;;;;;;;18.80;16.70;;;;;;;25.14;67.02;98060.06;1222686;75;3040137;-76
2023/09/10 09:01:57;;;;;;;13.85;11.65;;;;;;;25.44;65.15;98059.16;1225830;75;2918806;-75
2023/09/10 09:04:31;;;;;;;9.40;7.90;;;;;;;25.50;66.14;98059.72;1224424;75;2961579;-77
2023/09/10 09:07:10;;;;;;;17.65;14.20;;;;;;;26.23;63.67;98056.78;1223381;75;2916562;-74
2023/09/10 09:09:48;;;;;;;21.00;16.50;;;;;;;26.74;61.94;98058.16;1222127;75;3092902;-75
2023/09/10 09:12:21;;;;;;;17.80;14.85;;;;;;;26.27;62.97;98059.19;1224775;75;2919407;-76
2023/09/10 09:14:54;;;;;;;20.25;18.15;;;;;;;26.60;62.90;98056.28;1224182;75;2920828;-76
2023/09/10 09:17:27;;;;;;;18.00;16.20;;;;;;;27.50;61.41;98052.97;1223639;75;2925140;-76
2023/09/10 09:20:02;;;;;;;27.20;24.55;;;;;;;26.81;61.37;98056.59;1224371;75;2920523;-73
2023/09/10 09:22:38;;;;;;;10.50;8.55;;;;;;;27.62;59.48;98048.28;1225598;75;2913121;-77
2023/09/10 09:25:12;;;;;;;7.35;5.85;;;;;;;26.94;59.16;98041.50;1224161;75;2921127;-74
2023/09/10 09:27:46;;;;;;;5.50;4.45;;;;;;;28.62;55.70;98040.31;1224486;75;2917205;-74
2023/09/10 09:30:18;;;;;;;6.35;5.15;;;;;;;28.13;56.51;98043.03;1224341;75;2914553;-73
2023/09/10 09:32:53;;;;;;;12.55;9.50;;;;;;;28.81;55.96;98039.56;1219355;75;3152195;-74
2023/09/10 09:35:26;;;;;;;6.20;5.60;;;;;;;28.36;55.22;98037.00;1223038;75;2918415;-74
2023/09/10 09:38:09;;;;;;;6.30;4.90;;;;;;;29.29;51.70;98033.91;1208962;75;3904556;-73
2023/09/10 09:40:41;;;;;;;4.60;4.10;;;;;;;28.58;52.98;98040.03;1224461;75;2920784;-75
2023/09/10 09:43:14;;;;;;;10.20;9.10;;;;;;;29.66;51.78;98035.75;1224270;75;2921069;-75
2023/09/10 09:45:48;;;;;;;5.80;4.55;;;;;;;28.97;52.28;98042.84;1224466;75;2916193;-77
2023/09/10 09:48:21;;;;;;;7.10;6.05;;;;;;;29.04;51.59;98037.03;1219860;75;3035968;-77
2023/09/10 09:50:54;;;;;;;5.50;4.30;;;;;;;29.71;49.63;98029.81;1223899;75;2921902;-77
2023/09/10 09:53:32;;;;;;;14.70;12.30;;;;;;;29.64;49.28;98033.53;1223058;75;2923501;-75
2023/09/10 09:56:08;;;;;;;33.45;28.00;;;;;;;30.23;48.59;98019.88;1223308;75;2923093;-76
2023/09/10 09:58:40;;;;;;;9.10;8.20;;;;;;;30.15;50.08;98034.19;1224380;75;2915081;-76
2023/09/10 10:01:13;;;;;;;6.45;4.60;;;;;;;30.22;47.22;98015.59;1222274;83;2920159;-76
2023/09/10 10:03:46;;;;;;;18.90;13.85;;;;;;;30.08;48.61;98026.66;1224614;75;2918320;-74
2023/09/10 10:06:19;;;;;;;7.45;6.35;;;;;;;30.98;46.66;98018.47;1224606;75;2924178;-73
2023/09/10 10:08:55;;;;;;;9.00;6.55;;;;;;;30.92;45.44;98015.25;1225203;75;2915628;-74
2023/09/10 10:11:33;;;;;;;7.30;6.45;;;;;;;30.84;46.01;98011.91;1221888;75;3083305;-75
2023/09/10 10:14:08;;;;;;;12.75;10.00;;;;;;;31.05;45.98;98013.91;1225532;75;2923039;-74
2023/09/10 10:16:41;;;;;;;7.65;4.70;;;;;;;29.96;46.81;98013.81;1225094;75;2926608;-76
2023/09/10 10:19:14;;;;;;;3.65;3.30;;;;;;;31.49;44.76;98012.47;1224783;75;2927055;-75
2023/09/10 10:21:48;;;;;;;4.60;3.30;;;;;;;31.15;45.19;98006.09;1223551;75;2998288;-73
2023/09/10 10:24:24;;;;;;;5.35;4.00;;;;;;;31.00;45.57;98003.69;1224024;75;2923128;-76
2023/09/10 10:26:57;;;;;;;4.40;3.70;;;;;;;31.33;44.38;98002.94;1225132;75;2919839;-76
2023/09/10 10:29:31;;;;;;;3.40;3.00;;;;;;;31.10;45.31;97993.06;1224380;75;2917188;-76
2023/09/10 10:32:13;;;;;;;3.80;3.30;;;;;;;31.75;43.78;97993.53;1224492;75;2931168;-75
2023/09/10 10:34:57;;;;;;;3.80;3.25;;;;;;;32.80;42.31;97989.00;1225205;75;2921340;-77
2023/09/10 10:37:38;;;;;;;5.25;3.20;;;;;;;32.09;42.73;97984.88;1225414;75;2923560;-75
2023/09/10 10:40:20;;;;;;;5.65;3.65;;;;;;;30.90;44.35;97981.19;1225229;75;2928776;-76
2023/09/10 10:42:57;;;;;;;3.95;2.90;;;;;;;31.66;43.46;97988.72;1225131;75;2913907;-76
2023/09/10 10:45:31;;;;;;;3.40;2.90;;;;;;;32.08;43.33;97991.91;1225548;75;2922565;-76
2023/09/10 10:48:10;;;;;;;2.70;2.50;;;;;;;32.69;42.63;97992.63;1224998;75;2924228;-75
2023/09/10 10:50:45;;;;;;;4.05;3.20;;;;;;;32.18;42.82;97981.16;1224413;75;2923609;-74
2023/09/10 10:53:23;;;;;;;5.75;3.50;;;;;;;31.65;43.61;97984.41;1226033;75;2922479;-76
2023/09/10 10:56:03;;;;;;;3.90;3.05;;;;;;;32.03;43.47;97985.25;1224148;75;2915747;-74
2023/09/10 10:58:39;;;;;;;4.15;3.00;;;;;;;31.10;45.16;97980.97;1224926;75;2914801;-77
2023/09/10 11:01:14;;;;;;;3.95;3.10;;;;;;;30.91;45.37;97971.38;1221215;75;3074914;-75
2023/09/10 11:03:48;;;;;;;3.15;2.85;;;;;;;31.03;44.20;97970.63;1225564;75;2926291;-74
2023/09/10 11:06:21;;;;;;;3.60;3.20;;;;;;;32.47;42.24;97967.31;1225702;75;2924151;-76
2023/09/10 11:08:53;;;;;;;4.60;3.15;;;;;;;30.86;43.71;97972.47;1224556;75;2924511;-72
2023/09/10 11:11:52;;;;;;;4.25;2.80;;;;;;;30.58;45.04;97974.91;1224954;75;2946664;-76
